Time;durP1;ratioP1;P1;durP2;ratioP2;P2;SDS_P1;SDS_P2;PMS_P1;PMS_P2;Temp;Humidity;BMP_temperature;BMP_pressure;BME280_temperature;BME280_humidity;BME280_pressure;Samples;Min_cycle;Max_cycle;Signal;HPM_P1;HPM_P2
2022/03/30 00:01:59;;;;;;;15.27;10.87;;;10.70;53.20;;;;;;6281642;28;20198;-63
2022/03/30 00:05:00;;;;;;;13.57;9.97;;;10.60;54.20;;;;;;6281088;28;20208;-63
2022/03/30 00:08:01;;;;;;;11.50;9.80;;;10.60;54.10;;;;;;6290535;28;20204;-61
2022/03/30 00:11:02;;;;;;;14.30;9.53;;;10.50;54.80;;;;;;6248378;28;20284;-62
2022/03/30 00:14:02;;;;;;;14.87;10.40;;;10.40;54.80;;;;;;6281599;28;20299;-62
2022/03/30 00:17:04;;;;;;;11.00;9.87;;;10.40;54.50;;;;;;6231421;28;20197;-61
2022/03/30 00:20:08;;;;;;;14.10;11.10;;;10.30;54.90;;;;;;6264380;28;20197;-61
2022/03/30 00:23:09;;;;;;;13.37;10.37;;;10.20;55.60;;;;;;6284416;28;20186;-61
2022/03/30 00:26:10;;;;;;;12.70;9.30;;;10.30;55.90;;;;;;6280516;28;20191;-61
2022/03/30 00:29:11;;;;;;;12.00;9.07;;;10.20;55.90;;;;;;6297891;28;20241;-61
2022/03/30 00:32:12;;;;;;;12.53;9.67;;;10.10;56.10;;;;;;6299900;28;20192;-60
2022/03/30 00:35:14;;;;;;;14.67;9.87;;;10.10;56.10;;;;;;6303546;28;20205;-61
2022/03/30 00:38:15;;;;;;;15.07;10.80;;;10.00;56.30;;;;;;6322515;28;20213;-60
2022/03/30 00:41:17;;;;;;;11.13;9.57;;;9.90;56.20;;;;;;6290924;28;20201;-60
2022/03/30 00:44:17;;;;;;;14.10;10.23;;;10.00;55.90;;;;;;6253175;28;20208;-60
2022/03/30 00:47:22;;;;;;;11.97;9.93;;;9.90;56.40;;;;;;6317938;28;20182;-60
2022/03/30 00:50:23;;;;;;;13.10;10.10;;;9.90;56.40;;;;;;6319185;28;20219;-60
2022/03/30 00:53:24;;;;;;;10.67;9.47;;;9.80;56.90;;;;;;6291324;28;20194;-61
2022/03/30 00:56:29;;;;;;;13.80;9.90;;;9.60;57.20;;;;;;6264410;28;20193;-61
2022/03/30 00:59:30;;;;;;;14.70;9.23;;;9.50;57.40;;;;;;6314847;28;20189;-61
2022/03/30 01:02:31;;;;;;;11.27;9.37;;;9.60;57.30;;;;;;6278822;28;20186;-60
2022/03/30 01:05:32;;;;;;;12.20;9.33;;;9.60;56.80;;;;;;6268409;28;20182;-60
2022/03/30 01:08:32;;;;;;;14.37;10.57;;;9.70;56.30;;;;;;6235813;28;20496;-60
2022/03/30 01:11:33;;;;;;;12.63;10.47;;;9.70;56.00;;;;;;6284883;28;20193;-62
2022/03/30 01:14:35;;;;;;;17.03;10.27;;;9.70;56.10;;;;;;6268905;28;20225;-62
2022/03/30 01:17:39;;;;;;;12.07;10.10;;;9.70;56.10;;;;;;6284838;28;20208;-62
2022/03/30 01:20:40;;;;;;;12.47;9.50;;;9.70;56.10;;;;;;6285301;28;20182;-62
2022/03/30 01:23:41;;;;;;;16.93;9.33;;;9.60;56.50;;;;;;6291716;28;20197;-62
2022/03/30 01:26:42;;;;;;;13.67;10.03;;;9.50;56.80;;;;;;6294089;28;20236;-61
2022/03/30 01:33:07;;;;;;;12.63;9.43;;;9.30;57.50;;;;;;6278576;28;20187;-63
2022/03/30 01:36:08;;;;;;;11.37;9.80;;;9.30;57.30;;;;;;6259418;28;20221;-63
2022/03/30 01:39:09;;;;;;;13.63;10.07;;;9.40;56.90;;;;;;6259852;28;20185;-63
2022/03/30 01:42:10;;;;;;;12.43;9.53;;;9.60;55.60;;;;;;6275906;28;20189;-63
2022/03/30 01:45:15;;;;;;;11.30;9.00;;;9.80;55.10;;;;;;6288069;28;20225;-63
2022/03/30 01:48:16;;;;;;;12.20;9.90;;;9.80;55.00;;;;;;6275143;28;20243;-63
2022/03/30 01:51:16;;;;;;;12.67;9.87;;;9.80;55.10;;;;;;6275332;28;20193;-61
2022/03/30 01:54:19;;;;;;;12.03;10.00;;;9.70;55.50;;;;;;6258942;28;20272;-61
2022/03/30 01:57:20;;;;;;;13.53;9.90;;;9.70;55.80;;;;;;6275290;28;20181;-60
2022/03/30 02:00:24;;;;;;;12.60;9.60;;;9.60;56.10;;;;;;6259080;28;20200;-61
2022/03/30 02:03:28;;;;;;;11.43;9.67;;;9.50;56.20;;;;;;6294634;28;20190;-61
2022/03/30 02:06:28;;;;;;;15.23;9.70;;;9.40;56.80;;;;;;6283855;28;20189;-61
2022/03/30 02:09:29;;;;;;;14.53;9.80;;;9.30;56.90;;;;;;6263650;28;20235;-62
2022/03/30 02:12:30;;;;;;;12.53;9.83;;;9.30;56.70;;;;;;6258832;28;20174;-62
2022/03/30 02:15:32;;;;;;;14.33;9.83;;;9.30;56.80;;;;;;6258810;28;20214;-62
2022/03/30 02:18:32;;;;;;;11.87;9.23;;;9.20;57.30;;;;;;6291995;28;20258;-62
2022/03/30 02:21:34;;;;;;;11.73;10.27;;;9.10;57.30;;;;;;6278173;28;20192;-62
2022/03/30 02:24:35;;;;;;;12.73;9.67;;;9.10;57.70;;;;;;6283347;28;20199;-62
2022/03/30 02:27:37;;;;;;;14.23;9.70;;;9.00;57.70;;;;;;6271172;28;20244;-62
2022/03/30 02:30:38;;;;;;;11.37;9.80;;;9.00;57.20;;;;;;6274725;28;20178;-62
2022/03/30 02:33:39;;;;;;;14.60;10.00;;;9.00;57.20;;;;;;6258067;28;20204;-62
2022/03/30 02:36:40;;;;;;;13.03;10.50;;;8.90;57.80;;;;;;6257994;28;20190;-62
2022/03/30 02:39:41;;;;;;;13.13;9.57;;;8.90;58.10;;;;;;6282868;28;20191;-62
2022/03/30 02:42:42;;;;;;;14.73;10.17;;;8.80;58.20;;;;;;6286445;28;20239;-62
2022/03/30 02:45:43;;;;;;;15.63;10.33;;;8.80;58.40;;;;;;6249245;28;20220;-61
2022/03/30 02:48:44;;;;;;;11.50;9.23;;;8.90;57.60;;;;;;6249153;28;20237;-61
2022/03/30 02:51:45;;;;;;;14.63;10.50;;;8.80;58.10;;;;;;6271354;28;20410;-61
2022/03/30 02:54:46;;;;;;;14.27;9.90;;;8.80;58.50;;;;;;6273576;28;20260;-61
2022/03/30 02:57:47;;;;;;;12.40;9.57;;;8.80;58.90;;;;;;6260457;28;20201;-61
2022/03/30 03:00:49;;;;;;;10.93;9.10;;;8.80;59.10;;;;;;6239713;28;20243;-61
2022/03/30 03:03:49;;;;;;;12.47;10.33;;;8.70;59.30;;;;;;6273316;28;20200;-61
2022/03/30 03:06:51;;;;;;;15.70;9.87;;;8.60;59.00;;;;;;6264720;28;20201;-60
2022/03/30 03:09:52;;;;;;;11.73;9.73;;;8.60;59.00;;;;;;6257287;28;20194;-60
2022/03/30 03:12:53;;;;;;;14.83;10.47;;;8.50;59.10;;;;;;6251667;28;20208;-60
2022/03/30 03:15:54;;;;;;;13.90;10.03;;;8.70;58.90;;;;;;6273729;28;20221;-60
2022/03/30 03:18:55;;;;;;;13.40;9.57;;;8.70;58.80;;;;;;6249088;28;20264;-61
2022/03/30 03:21:55;;;;;;;13.53;9.57;;;8.70;58.80;;;;;;6265177;28;20236;-58
2022/03/30 03:24:56;;;;;;;13.27;9.83;;;8.70;58.80;;;;;;6272002;28;20208;-58
2022/03/30 03:27:57;;;;;;;14.20;10.23;;;8.80;58.40;;;;;;6259444;28;20246;-58
2022/03/30 03:30:58;;;;;;;16.90;11.07;;;8.80;58.60;;;;;;6273218;28;20197;-58
2022/03/30 03:33:59;;;;;;;13.73;10.37;;;8.80;58.40;;;;;;6273378;28;20221;-58
2022/03/30 03:36:59;;;;;;;13.13;10.10;;;8.80;58.70;;;;;;6264314;28;20190;-58
2022/03/30 03:40:00;;;;;;;13.93;10.73;;;8.60;59.10;;;;;;6297508;28;20196;-58
2022/03/30 03:43:02;;;;;;;13.80;10.53;;;8.40;59.50;;;;;;6332724;28;20256;-58
2022/03/30 03:46:03;;;;;;;13.33;9.70;;;8.30;60.20;;;;;;6277738;28;20197;-57
2022/03/30 03:49:04;;;;;;;14.27;10.20;;;8.30;60.40;;;;;;6248736;28;20265;-57
2022/03/30 03:52:06;;;;;;;13.37;10.77;;;8.20;60.70;;;;;;6243259;28;20193;-58
2022/03/30 03:55:07;;;;;;;14.50;9.77;;;8.20;60.80;;;;;;6279744;28;20217;-57
2022/03/30 03:58:09;;;;;;;14.70;10.90;;;8.00;61.20;;;;;;6276360;28;20260;-57
2022/03/30 04:01:09;;;;;;;14.10;11.17;;;7.90;61.20;;;;;;6267023;28;20197;-58
2022/03/30 04:04:10;;;;;;;14.70;10.87;;;7.80;61.90;;;;;;6264940;28;20194;-60
2022/03/30 04:07:12;;;;;;;14.27;11.03;;;7.70;62.00;;;;;;6284908;28;20198;-58
2022/03/30 04:10:15;;;;;;;16.50;10.93;;;7.60;62.70;;;;;;6312516;28;20189;-61
2022/03/30 04:13:15;;;;;;;16.13;10.20;;;7.60;62.70;;;;;;6292431;28;20288;-59
2022/03/30 04:16:17;;;;;;;14.37;10.00;;;7.60;62.80;;;;;;6311783;28;20219;-59
2022/03/30 04:19:17;;;;;;;13.87;10.50;;;7.60;62.60;;;;;;6274840;28;20648;-59
2022/03/30 04:22:19;;;;;;;13.63;11.20;;;7.40;62.80;;;;;;6273018;28;20204;-59
2022/03/30 04:25:19;;;;;;;12.80;9.50;;;7.40;63.20;;;;;;6256059;28;20190;-57
2022/03/30 04:28:20;;;;;;;14.07;10.20;;;7.30;63.40;;;;;;6289309;28;20245;-58
2022/03/30 04:31:21;;;;;;;12.90;10.33;;;7.30;63.70;;;;;;6286892;28;20209;-58
2022/03/30 04:34:22;;;;;;;16.00;11.27;;;7.30;63.70;;;;;;6272422;28;20214;-58
2022/03/30 04:37:23;;;;;;;14.33;10.53;;;7.20;63.70;;;;;;6288806;28;20185;-58
2022/03/30 04:40:26;;;;;;;14.57;11.07;;;7.20;63.60;;;;;;6289093;28;20222;-60
2022/03/30 04:43:27;;;;;;;15.10;10.30;;;7.20;63.70;;;;;;6295976;28;20221;-60
2022/03/30 04:46:28;;;;;;;14.50;10.97;;;7.30;63.40;;;;;;6276802;28;20186;-61
2022/03/30 04:49:29;;;;;;;13.33;10.00;;;7.30;63.00;;;;;;6274251;28;20193;-60
2022/03/30 04:52:32;;;;;;;14.17;9.90;;;7.30;63.40;;;;;;6273572;28;20199;-60
2022/03/30 04:55:32;;;;;;;14.83;10.67;;;7.10;64.20;;;;;;6275856;28;20290;-60
2022/03/30 04:58:33;;;;;;;15.00;11.10;;;7.10;64.20;;;;;;6276550;28;20189;-60
2022/03/30 05:01:35;;;;;;;16.00;10.60;;;7.20;64.30;;;;;;6295625;28;20188;-57
2022/03/30 05:04:36;;;;;;;13.90;10.73;;;7.10;64.40;;;;;;6296134;28;20211;-58
2022/03/30 05:07:40;;;;;;;14.83;11.63;;;7.20;64.40;;;;;;6290950;28;20193;-53
2022/03/30 05:10:41;;;;;;;15.37;11.00;;;7.10;64.60;;;;;;6288310;28;20250;-57
2022/03/30 05:13:42;;;;;;;14.67;11.40;;;7.20;64.20;;;;;;6296249;28;20197;-58
2022/03/30 05:16:42;;;;;;;14.40;11.27;;;7.30;63.90;;;;;;6289011;28;20199;-59
2022/03/30 05:19:46;;;;;;;15.10;10.57;;;7.30;64.20;;;;;;6293111;28;20200;-58
2022/03/30 05:22:47;;;;;;;16.63;10.23;;;7.30;64.30;;;;;;6299301;28;20192;-59
2022/03/30 05:25:48;;;;;;;13.93;10.67;;;7.30;64.50;;;;;;6277673;28;20217;-58
2022/03/30 05:28:49;;;;;;;14.13;10.20;;;7.30;64.90;;;;;;6286180;28;20240;-57
2022/03/30 05:31:50;;;;;;;14.03;10.87;;;7.30;64.20;;;;;;6278987;28;20286;-59
2022/03/30 05:34:51;;;;;;;15.37;12.30;;;7.40;64.10;;;;;;6296792;28;20291;-59
2022/03/30 05:37:52;;;;;;;10.67;9.47;;;7.40;64.20;;;;;;6240363;28;20196;-59
2022/03/30 05:40:52;;;;;;;14.97;10.97;;;7.40;64.60;;;;;;6288886;28;20198;-59
2022/03/30 05:43:53;;;;;;;17.43;10.40;;;7.50;64.10;;;;;;6272919;28;20297;-58
2022/03/30 05:46:54;;;;;;;14.10;10.77;;;7.40;64.10;;;;;;6272952;28;20213;-58
2022/03/30 05:49:55;;;;;;;15.40;10.90;;;7.50;63.80;;;;;;6272669;28;20229;-59
2022/03/30 05:52:55;;;;;;;15.57;10.47;;;7.70;64.10;;;;;;6273924;28;20193;-57
2022/03/30 05:55:57;;;;;;;13.33;10.03;;;7.70;63.50;;;;;;6273308;28;20230;-56
2022/03/30 05:58:57;;;;;;;13.17;10.50;;;7.80;64.20;;;;;;6290536;28;20280;-56
2022/03/30 06:01:59;;;;;;;15.53;11.93;;;7.90;64.60;;;;;;6270288;28;20189;-56
2022/03/30 06:05:00;;;;;;;14.20;11.13;;;8.10;64.20;;;;;;6289491;28;20428;-55
2022/03/30 06:08:00;;;;;;;13.37;11.40;;;8.10;63.60;;;;;;6273692;28;20197;-57
2022/03/30 06:11:01;;;;;;;17.80;11.60;;;8.20;64.00;;;;;;6272234;28;20248;-56
2022/03/30 06:14:02;;;;;;;15.07;10.50;;;8.40;63.70;;;;;;6271738;28;20217;-56
2022/03/30 06:17:05;;;;;;;13.43;10.90;;;8.60;61.70;;;;;;6271918;28;20208;-55
2022/03/30 06:20:06;;;;;;;14.30;11.27;;;8.80;61.80;;;;;;6272529;28;20194;-56
2022/03/30 06:23:07;;;;;;;14.47;10.53;;;8.80;61.60;;;;;;6289799;28;20190;-56
2022/03/30 06:26:08;;;;;;;16.67;11.67;;;8.90;61.40;;;;;;6287768;28;20213;-55
2022/03/30 06:29:09;;;;;;;18.60;11.80;;;9.00;61.10;;;;;;6287089;28;20236;-56
2022/03/30 06:32:10;;;;;;;15.03;11.50;;;9.20;60.80;;;;;;6286933;28;20201;-56
2022/03/30 06:35:11;;;;;;;14.03;10.90;;;9.30;57.80;;;;;;6288251;28;20568;-56
2022/03/30 06:38:11;;;;;;;16.10;12.73;;;9.50;57.60;;;;;;6254923;28;20214;-57
2022/03/30 06:41:12;;;;;;;15.40;11.63;;;9.60;57.90;;;;;;6270908;28;20190;-56
2022/03/30 06:44:14;;;;;;;17.10;11.67;;;9.80;58.00;;;;;;6269767;28;20207;-56
2022/03/30 06:47:14;;;;;;;18.07;12.23;;;9.80;56.90;;;;;;6288141;28;20224;-57
2022/03/30 06:50:18;;;;;;;26.83;12.70;;;9.90;56.60;;;;;;6288107;28;20197;-56
2022/03/30 06:53:19;;;;;;;17.50;11.67;;;10.10;56.10;;;;;;6271346;28;20198;-56
2022/03/30 06:56:20;;;;;;;17.17;12.00;;;10.20;55.90;;;;;;6279000;28;20303;-56
2022/03/30 06:59:21;;;;;;;16.43;11.57;;;10.20;55.20;;;;;;6263335;28;20190;-56
2022/03/30 07:02:22;;;;;;;18.50;12.70;;;10.30;54.50;;;;;;6264377;28;20228;-56
2022/03/30 07:05:23;;;;;;;20.70;14.03;;;10.30;55.00;;;;;;6273794;28;20205;-57
2022/03/30 07:11:43;;;;;;;21.40;13.47;;;10.60;55.30;;;;;;6288713;28;20289;-56
2022/03/30 07:14:46;;;;;;;15.07;12.67;;;10.70;54.40;;;;;;6271348;28;20265;-56
2022/03/30 07:17:52;;;;;;;19.20;12.43;;;10.80;54.70;;;;;;6271652;28;20412;-56
2022/03/30 07:20:53;;;;;;;14.63;12.10;;;10.80;54.00;;;;;;6286965;28;20182;-55
2022/03/30 07:23:53;;;;;;;25.87;12.53;;;10.90;54.40;;;;;;6285999;28;20259;-57
2022/03/30 07:26:54;;;;;;;16.37;11.90;;;11.00;53.10;;;;;;6270651;28;20263;-55
2022/03/30 07:29:55;;;;;;;18.13;13.03;;;11.20;52.80;;;;;;6236462;28;20494;-56
2022/03/30 07:32:58;;;;;;;14.90;11.97;;;11.30;53.60;;;;;;6238422;28;20229;-57
2022/03/30 07:35:59;;;;;;;16.03;12.00;;;11.50;52.40;;;;;;6227871;28;20222;-56
2022/03/30 07:39:00;;;;;;;15.00;11.83;;;11.60;52.10;;;;;;6236501;28;20197;-56
2022/03/30 07:42:01;;;;;;;17.13;12.80;;;11.70;51.90;;;;;;6238549;28;20197;-57
2022/03/30 07:45:04;;;;;;;16.13;11.63;;;11.70;50.90;;;;;;6237239;28;20296;-57
2022/03/30 07:48:05;;;;;;;15.80;12.53;;;11.80;50.60;;;;;;6254422;28;20197;-56
2022/03/30 07:51:06;;;;;;;20.13;12.97;;;11.90;51.00;;;;;;6237764;28;20217;-56
2022/03/30 07:54:07;;;;;;;15.40;12.53;;;12.00;50.70;;;;;;6237451;28;20243;-56
2022/03/30 07:57:09;;;;;;;18.93;12.70;;;12.00;50.40;;;;;;6237268;28;20211;-57
2022/03/30 08:00:16;;;;;;;16.93;12.63;;;12.00;50.50;;;;;;6232890;28;20466;-57
2022/03/30 08:03:16;;;;;;;20.70;12.80;;;12.10;50.90;;;;;;6253627;28;20190;-56
2022/03/30 08:06:17;;;;;;;18.53;13.60;;;12.20;50.10;;;;;;6236386;28;20262;-57
2022/03/30 08:09:19;;;;;;;22.20;13.43;;;12.20;50.40;;;;;;6229104;28;20218;-57
2022/03/30 08:12:20;;;;;;;20.67;13.60;;;12.20;50.20;;;;;;6238103;28;20193;-56
2022/03/30 08:15:21;;;;;;;23.33;14.00;;;12.30;50.50;;;;;;6225351;28;20221;-57
2022/03/30 08:18:22;;;;;;;20.00;14.10;;;12.40;50.30;;;;;;6242184;28;20221;-56
2022/03/30 08:24:48;;;;;;;23.23;15.27;;;12.50;49.60;;;;;;6231561;28;20201;-57
2022/03/30 08:27:49;;;;;;;22.07;13.80;;;12.50;49.40;;;;;;6243546;28;20342;-56
2022/03/30 08:30:50;;;;;;;21.73;14.27;;;12.60;48.60;;;;;;6241972;28;20194;-57
2022/03/30 08:33:51;;;;;;;23.87;14.50;;;12.70;49.00;;;;;;6241091;28;20198;-56
2022/03/30 08:36:52;;;;;;;22.90;14.60;;;12.80;48.70;;;;;;6256850;28;20194;-55
2022/03/30 08:39:56;;;;;;;17.50;12.90;;;12.80;49.40;;;;;;6242011;28;20199;-56
2022/03/30 08:42:56;;;;;;;21.23;13.80;;;12.80;49.40;;;;;;6240779;28;20190;-57
2022/03/30 08:46:00;;;;;;;21.03;13.83;;;12.80;49.00;;;;;;6242010;28;20181;-56
2022/03/30 08:49:01;;;;;;;28.20;14.37;;;13.00;49.50;;;;;;6242771;28;20190;-57
2022/03/30 08:52:04;;;;;;;23.03;14.20;;;13.10;48.90;;;;;;6242386;28;20197;-57
2022/03/30 08:55:05;;;;;;;19.97;14.77;;;13.20;49.50;;;;;;6240267;28;20279;-57
2022/03/30 08:58:06;;;;;;;19.77;14.47;;;13.30;49.40;;;;;;6223452;28;20194;-56
2022/03/30 09:01:09;;;;;;;18.30;13.10;;;13.30;49.20;;;;;;6242130;28;20225;-56
2022/03/30 09:04:12;;;;;;;20.07;13.57;;;13.30;50.00;;;;;;6240479;28;20197;-56
2022/03/30 09:07:19;;;;;;;19.87;13.33;;;13.50;48.80;;;;;;6240837;28;20235;-56
2022/03/30 09:10:30;;;;;;;21.53;13.97;;;13.60;48.90;;;;;;6257664;28;20218;-56
2022/03/30 09:13:31;;;;;;;23.07;14.63;;;13.70;48.50;;;;;;6250161;28;20195;-57
2022/03/30 09:16:54;;;;;;;26.67;14.67;;;13.80;49.30;;;;;;6200925;28;20253;-57
2022/03/30 09:19:56;;;;;;;16.97;12.60;;;13.90;50.40;;;;;;6239108;28;20191;-57
2022/03/30 09:22:58;;;;;;;19.70;13.67;;;14.00;48.60;;;;;;6215212;28;20206;-56
2022/03/30 09:25:59;;;;;;;20.63;14.00;;;14.20;48.50;;;;;;6232603;28;20230;-57
2022/03/30 09:29:02;;;;;;;21.37;13.77;;;14.30;48.80;;;;;;6243855;28;20233;-57
2022/03/30 09:32:06;;;;;;;19.23;13.67;;;14.40;48.40;;;;;;6290632;28;20210;-56
2022/03/30 09:35:30;;;;;;;17.43;13.37;;;14.50;48.30;;;;;;6290307;28;20305;-56
2022/03/30 09:38:38;;;;;;;18.03;13.57;;;14.60;48.60;;;;;;6289873;28;20185;-56
2022/03/30 09:41:51;;;;;;;21.10;14.13;;;14.80;48.30;;;;;;6254921;28;20190;-57
2022/03/30 09:44:54;;;;;;;18.07;14.07;;;14.80;47.00;;;;;;6290234;28;20179;-56
2022/03/30 09:47:54;;;;;;;21.53;13.47;;;14.90;46.70;;;;;;6291820;28;20222;-56
2022/03/30 09:50:57;;;;;;;19.03;14.53;;;14.90;47.20;;;;;;6274932;28;20199;-57
2022/03/30 09:53:58;;;;;;;19.13;12.97;;;15.00;47.00;;;;;;6291776;28;20198;-57
2022/03/30 09:56:59;;;;;;;16.00;13.70;;;15.00;46.90;;;;;;6275361;28;20212;-57
2022/03/30 10:00:02;;;;;;;18.67;13.80;;;15.10;46.90;;;;;;6288135;28;20219;-57
2022/03/30 10:03:10;;;;;;;17.10;14.13;;;15.00;46.80;;;;;;6306639;28;20230;-58
2022/03/30 10:06:13;;;;;;;18.03;13.77;;;15.10;46.90;;;;;;6274643;28;20228;-58
2022/03/30 10:09:16;;;;;;;19.77;13.53;;;15.20;46.80;;;;;;6291753;28;20204;-58
2022/03/30 10:12:17;;;;;;;17.83;13.43;;;15.20;46.50;;;;;;6291910;28;20190;-57
2022/03/30 10:15:18;;;;;;;17.90;14.10;;;15.20;46.80;;;;;;6291234;28;20221;-57
2022/03/30 10:18:19;;;;;;;20.20;14.77;;;15.20;46.50;;;;;;6281260;28;20190;-58
2022/03/30 10:21:20;;;;;;;18.03;13.90;;;15.10;45.50;;;;;;6250324;28;20265;-57
2022/03/30 10:24:39;;;;;;;21.83;14.43;;;15.00;45.30;;;;;;6250354;28;20185;-56
2022/03/30 10:27:57;;;;;;;17.33;14.97;;;15.00;45.40;;;;;;6271655;28;20309;-59
2022/03/30 10:30:58;;;;;;;16.83;14.77;;;15.00;46.00;;;;;;6265763;28;20219;-58
2022/03/30 10:34:26;;;;;;;23.93;15.20;;;15.00;45.60;;;;;;6281966;28;20188;-58
2022/03/30 10:37:36;;;;;;;18.37;14.70;;;14.90;45.30;;;;;;6231188;28;20183;-58
2022/03/30 10:40:38;;;;;;;19.63;13.87;;;14.90;45.60;;;;;;6251870;28;20264;-52
2022/03/30 10:43:39;;;;;;;21.67;14.93;;;15.00;45.40;;;;;;6240917;28;20194;-53
2022/03/30 10:46:40;;;;;;;18.60;13.93;;;14.90;45.20;;;;;;6241876;28;20193;-55
2022/03/30 10:49:51;;;;;;;18.63;14.07;;;15.00;46.10;;;;;;6258028;28;20185;-52
2022/03/30 10:52:52;;;;;;;18.87;14.40;;;15.00;45.10;;;;;;6239077;28;20199;-53
2022/03/30 10:55:53;;;;;;;20.20;14.13;;;15.10;45.10;;;;;;6216372;28;20221;-50
2022/03/30 10:58:56;;;;;;;17.93;14.07;;;15.00;45.40;;;;;;6228411;28;20198;-53
2022/03/30 11:02:13;;;;;;;19.40;15.00;;;15.10;45.00;;;;;;6242448;28;20205;-53
2022/03/30 11:05:15;;;;;;;18.90;14.53;;;15.00;45.60;;;;;;6269743;28;20190;-56
2022/03/30 11:08:31;;;;;;;17.30;13.77;;;15.00;45.80;;;;;;6241199;28;20198;-58
2022/03/30 11:11:35;;;;;;;22.33;14.67;;;15.10;45.90;;;;;;6276514;28;20197;-58
2022/03/30 11:14:46;;;;;;;23.00;15.83;;;15.30;45.20;;;;;;6271728;28;20209;-58
2022/03/30 11:17:46;;;;;;;22.83;14.37;;;15.40;44.10;;;;;;6256535;28;20183;-53
2022/03/30 11:21:11;;;;;;;20.87;15.00;;;15.50;44.30;;;;;;6240333;28;20232;-58
2022/03/30 11:24:18;;;;;;;23.90;15.87;;;15.40;44.70;;;;;;6256286;28;20224;-56
2022/03/30 11:27:20;;;;;;;20.13;15.20;;;15.40;45.00;;;;;;6256376;28;20269;-57
2022/03/30 11:30:21;;;;;;;22.43;15.03;;;15.50;44.60;;;;;;6256805;28;20234;-57
2022/03/30 11:33:23;;;;;;;16.93;14.40;;;15.50;44.80;;;;;;6240170;28;20201;-59
2022/03/30 11:36:25;;;;;;;23.03;15.50;;;15.50;44.10;;;;;;6256493;28;20210;-59
2022/03/30 11:39:33;;;;;;;21.57;15.27;;;15.40;44.70;;;;;;6240119;28;20196;-58
2022/03/30 11:42:45;;;;;;;23.17;16.03;;;15.40;44.20;;;;;;6239731;28;20186;-58
2022/03/30 11:45:47;;;;;;;23.90;16.63;;;15.50;44.20;;;;;;6240487;28;20194;-58
2022/03/30 11:48:49;;;;;;;24.00;17.37;;;15.50;44.80;;;;;;6230953;28;20203;-57
2022/03/30 11:51:52;;;;;;;22.37;17.53;;;15.60;44.80;;;;;;6215503;28;20219;-56
2022/03/30 11:54:54;;;;;;;22.47;16.87;;;15.70;44.50;;;;;;6215782;28;20219;-58
2022/03/30 11:57:58;;;;;;;20.73;16.20;;;15.70;44.90;;;;;;6236011;28;20193;-56
2022/03/30 12:01:02;;;;;;;23.60;16.17;;;15.80;44.50;;;;;;6256443;28;20190;-56
2022/03/30 12:04:04;;;;;;;22.83;16.87;;;15.80;43.40;;;;;;6251604;28;20195;-58
2022/03/30 12:07:05;;;;;;;25.67;17.67;;;15.80;43.80;;;;;;6240559;28;20217;-57
2022/03/30 12:10:14;;;;;;;23.83;16.00;;;15.80;43.90;;;;;;6239618;28;20196;-58
2022/03/30 12:13:22;;;;;;;22.87;16.80;;;15.80;44.00;;;;;;6256568;28;20175;-58
2022/03/30 12:16:26;;;;;;;23.60;16.43;;;15.90;43.20;;;;;;6255394;28;20245;-58
2022/03/30 12:19:27;;;;;;;20.77;16.17;;;16.00;42.60;;;;;;6239743;28;20198;-60
2022/03/30 12:22:28;;;;;;;23.10;18.03;;;16.20;43.10;;;;;;6239935;28;20182;-58
2022/03/30 12:25:35;;;;;;;23.73;16.63;;;16.20;41.90;;;;;;6238439;28;20191;-57
2022/03/30 12:28:36;;;;;;;20.00;15.67;;;16.30;42.10;;;;;;6247156;28;20291;-58
2022/03/30 12:31:40;;;;;;;21.30;15.80;;;16.30;41.40;;;;;;6264315;28;20199;-59
2022/03/30 12:34:43;;;;;;;23.00;16.40;;;16.30;42.70;;;;;;6280964;28;20265;-56
2022/03/30 12:37:46;;;;;;;23.50;16.67;;;16.30;41.90;;;;;;6240374;28;20278;-58
2022/03/30 12:40:53;;;;;;;23.33;16.70;;;16.30;41.40;;;;;;6288746;28;20191;-58
2022/03/30 12:44:01;;;;;;;23.53;17.53;;;16.20;41.50;;;;;;6272208;28;20183;-57
2022/03/30 12:47:03;;;;;;;23.43;16.17;;;16.20;40.00;;;;;;6272151;28;20187;-57
2022/03/30 12:50:19;;;;;;;24.33;16.47;;;16.10;40.50;;;;;;6272486;28;20186;-58
2022/03/30 12:53:30;;;;;;;21.43;16.10;;;16.00;44.90;;;;;;6271373;28;20210;-58
2022/03/30 12:56:31;;;;;;;24.03;18.13;;;15.90;42.10;;;;;;6288541;28;20219;-57
2022/03/30 12:59:32;;;;;;;21.47;17.10;;;15.80;41.80;;;;;;6259642;28;20202;-58
2022/03/30 13:02:33;;;;;;;24.70;16.80;;;15.70;40.40;;;;;;6276440;28;20198;-58
2022/03/30 13:05:34;;;;;;;22.10;16.50;;;15.80;40.70;;;;;;6259751;28;20259;-55
2022/03/30 13:08:37;;;;;;;25.57;16.37;;;15.80;40.40;;;;;;6267638;28;20195;-53
2022/03/30 13:11:47;;;;;;;23.60;16.53;;;15.80;41.40;;;;;;6252119;28;20171;-53
2022/03/30 13:14:48;;;;;;;22.63;16.07;;;15.80;41.20;;;;;;6258320;28;20210;-53
2022/03/30 13:17:58;;;;;;;23.43;15.53;;;15.70;40.90;;;;;;6284995;28;20183;-51
2022/03/30 13:21:02;;;;;;;22.27;16.37;;;15.70;40.40;;;;;;6258364;28;20202;-50
2022/03/30 13:24:14;;;;;;;25.00;16.00;;;15.60;40.50;;;;;;6268046;28;20197;-54
2022/03/30 13:27:15;;;;;;;22.93;15.70;;;15.70;41.80;;;;;;6274417;28;20232;-53
2022/03/30 13:30:15;;;;;;;19.73;15.47;;;15.60;41.70;;;;;;6243001;28;20189;-55
2022/03/30 13:33:17;;;;;;;17.80;14.43;;;15.50;42.10;;;;;;6259013;28;20190;-55
2022/03/30 13:36:18;;;;;;;24.30;16.70;;;15.30;51.30;;;;;;6278237;28;20225;-55
2022/03/30 13:39:20;;;;;;;23.77;15.57;;;14.80;65.00;;;;;;6280754;28;20203;-56
2022/03/30 13:42:21;;;;;;;20.20;15.73;;;14.20;63.20;;;;;;6281237;28;20182;-57
2022/03/30 13:45:22;;;;;;;21.03;15.67;;;14.20;56.80;;;;;;6259241;28;20228;-56
2022/03/30 13:48:23;;;;;;;19.63;16.97;;;14.00;68.80;;;;;;6272423;28;20217;-57
2022/03/30 13:51:24;;;;;;;19.33;16.67;;;13.80;73.10;;;;;;6262768;28;20189;-56
2022/03/30 13:54:25;;;;;;;21.43;14.37;;;13.70;71.60;;;;;;6260470;28;20242;-56
2022/03/30 13:57:25;;;;;;;16.40;13.80;;;13.80;66.20;;;;;;6299786;28;20189;-56
2022/03/30 14:00:28;;;;;;;15.73;12.70;;;14.10;57.10;;;;;;6261689;28;20194;-55
2022/03/30 14:03:30;;;;;;;16.03;12.23;;;14.20;53.70;;;;;;6263395;28;20201;-55
2022/03/30 14:06:31;;;;;;;16.97;12.93;;;14.30;52.90;;;;;;6253359;28;20202;-56
2022/03/30 14:09:34;;;;;;;15.57;12.03;;;14.30;48.80;;;;;;6274678;28;20317;-56
2022/03/30 14:12:34;;;;;;;18.67;11.67;;;14.50;48.30;;;;;;6275707;28;20278;-54
2022/03/30 14:15:35;;;;;;;14.87;11.47;;;14.60;46.90;;;;;;6274509;28;20217;-56
2022/03/30 14:18:36;;;;;;;17.13;12.53;;;14.70;46.20;;;;;;6258224;28;20181;-56
2022/03/30 14:21:37;;;;;;;16.73;12.20;;;14.70;45.70;;;;;;6257787;28;20196;-55
2022/03/30 14:24:38;;;;;;;20.50;13.03;;;14.70;45.60;;;;;;6273105;28;20227;-56
2022/03/30 14:27:39;;;;;;;14.33;10.60;;;14.70;45.60;;;;;;6282187;28;20237;-57
2022/03/30 14:30:41;;;;;;;13.03;10.53;;;14.80;45.00;;;;;;6256224;28;20186;-55
2022/03/30 14:33:41;;;;;;;13.30;9.90;;;14.80;45.00;;;;;;6257842;28;20215;-54
2022/03/30 14:36:42;;;;;;;13.20;9.03;;;14.80;45.20;;;;;;6216615;28;20245;-56
2022/03/30 14:39:43;;;;;;;15.07;9.33;;;14.80;44.60;;;;;;6266702;28;20198;-56
2022/03/30 14:42:44;;;;;;;14.73;8.77;;;14.80;43.80;;;;;;6249411;28;20298;-56
2022/03/30 14:45:45;;;;;;;10.67;8.20;;;14.80;43.80;;;;;;6233178;28;20190;-55
2022/03/30 14:48:46;;;;;;;15.93;8.67;;;14.80;44.90;;;;;;6217310;28;20193;-53
2022/03/30 14:51:47;;;;;;;11.93;8.23;;;14.70;46.70;;;;;;6256080;28;20255;-58
2022/03/30 14:54:47;;;;;;;12.20;8.23;;;14.70;46.40;;;;;;6244259;28;20213;-58
2022/03/30 14:57:52;;;;;;;16.77;8.53;;;14.60;44.70;;;;;;6274447;28;20190;-58
2022/03/30 15:00:53;;;;;;;11.27;7.63;;;14.60;44.30;;;;;;6289218;28;20193;-58
2022/03/30 15:03:54;;;;;;;8.30;7.07;;;14.60;44.40;;;;;;6277922;28;20196;-58
2022/03/30 15:06:54;;;;;;;10.73;7.73;;;14.60;44.20;;;;;;6280759;28;20218;-58
2022/03/30 15:09:55;;;;;;;14.73;8.23;;;14.70;44.80;;;;;;6280589;28;20203;-58
2022/03/30 15:12:57;;;;;;;12.90;7.07;;;14.70;44.40;;;;;;6263807;28;20342;-58
2022/03/30 15:15:58;;;;;;;9.70;6.90;;;14.70;44.60;;;;;;6255877;28;20209;-58
2022/03/30 15:18:59;;;;;;;11.07;6.70;;;14.70;43.90;;;;;;6272786;28;20239;-58
2022/03/30 15:22:00;;;;;;;11.53;7.37;;;14.80;43.90;;;;;;6245736;28;20194;-58
2022/03/30 15:25:02;;;;;;;10.43;7.87;;;14.80;44.90;;;;;;6238859;28;20196;-58
2022/03/30 15:28:06;;;;;;;15.23;7.57;;;14.80;44.70;;;;;;6217488;28;20245;-58
2022/03/30 15:31:06;;;;;;;12.33;8.13;;;14.70;47.50;;;;;;6238908;28;20199;-58
2022/03/30 15:34:08;;;;;;;13.70;9.70;;;14.70;47.20;;;;;;6271808;28;20200;-57
2022/03/30 15:37:10;;;;;;;13.80;9.63;;;14.60;48.00;;;;;;6251070;28;20194;-58
2022/03/30 15:40:12;;;;;;;14.37;9.40;;;14.50;48.40;;;;;;6272166;28;20213;-58
2022/03/30 15:43:13;;;;;;;14.57;9.50;;;14.50;49.60;;;;;;6246381;28;20221;-56